Time;durP1;ratioP1;P1;durP2;ratioP2;P2;SDS_P1;SDS_P2;PMS_P1;PMS_P2;Temp;Humidity;BMP_temperature;BMP_pressure;BME280_temperature;BME280_humidity;BME280_pressure;Samples;Min_cycle;Max_cycle;Signal;HPM_P1;HPM_P2
2021/06/20 00:01:56;;;;;;;6.47;3.60;;;23.10;99.90;;;;;;4146548;28;20121;-83
2021/06/20 00:03:56;;;;;;;9.98;3.63;;;23.10;99.90;;;;;;4129420;28;20415;-83
2021/06/20 00:06:29;;;;;;;10.02;4.13;;;23.10;99.90;;;;;;4147530;28;20036;-83
2021/06/20 00:08:30;;;;;;;8.63;3.83;;;23.10;99.90;;;;;;4140007;28;20034;-83
2021/06/20 00:10:33;;;;;;;6.57;3.13;;;23.10;99.90;;;;;;4129952;28;20102;-83
2021/06/20 00:12:37;;;;;;;6.40;3.47;;;23.10;99.90;;;;;;4145064;28;20038;-83
2021/06/20 00:14:38;;;;;;;7.47;3.33;;;23.00;99.90;;;;;;4141032;28;20029;-83
2021/06/20 00:16:39;;;;;;;6.15;3.42;;;23.00;99.90;;;;;;4146085;28;20200;-82
2021/06/20 00:18:40;;;;;;;8.98;3.03;;;23.00;99.90;;;;;;4129707;28;20034;-83
2021/06/20 00:20:44;;;;;;;5.68;3.03;;;23.00;99.90;;;;;;4146858;28;20080;-83
2021/06/20 00:22:45;;;;;;;8.15;3.35;;;23.00;99.90;;;;;;4128117;28;20390;-83
2021/06/20 00:24:46;;;;;;;8.38;3.38;;;22.90;99.90;;;;;;4129171;28;20467;-83
2021/06/20 00:26:46;;;;;;;6.43;2.90;;;23.00;99.90;;;;;;4129394;28;20034;-83
2021/06/20 00:28:47;;;;;;;8.20;3.53;;;23.00;99.90;;;;;;4144974;28;20056;-83
2021/06/20 00:30:50;;;;;;;4.38;2.80;;;23.10;99.90;;;;;;4128677;28;20107;-83
2021/06/20 00:32:51;;;;;;;5.65;3.05;;;23.00;99.90;;;;;;4128041;28;20038;-82
2021/06/20 00:34:53;;;;;;;5.85;3.78;;;23.10;99.90;;;;;;4145657;28;20180;-83
2021/06/20 00:36:53;;;;;;;3.90;3.00;;;23.10;99.90;;;;;;4130096;28;20031;-83
2021/06/20 00:38:54;;;;;;;6.05;4.03;;;23.10;99.90;;;;;;4146550;28;20041;-83
2021/06/20 00:40:54;;;;;;;4.97;3.55;;;23.10;99.90;;;;;;4128882;28;20057;-83
2021/06/20 00:42:55;;;;;;;6.40;4.20;;;23.10;99.90;;;;;;4146666;28;20507;-83
2021/06/20 00:44:56;;;;;;;5.75;3.50;;;23.10;99.90;;;;;;4146177;28;20109;-83
2021/06/20 00:46:57;;;;;;;6.13;3.63;;;23.10;99.90;;;;;;4147633;28;20036;-83
2021/06/20 00:48:57;;;;;;;6.32;3.63;;;23.10;99.90;;;;;;4144630;28;20565;-83
2021/06/20 00:50:58;;;;;;;5.28;2.83;;;23.00;99.90;;;;;;4129309;28;20041;-83
2021/06/20 00:53:01;;;;;;;8.13;3.85;;;23.10;99.90;;;;;;4147269;28;20030;-83
2021/06/20 00:55:02;;;;;;;3.72;2.67;;;23.10;99.90;;;;;;4145873;28;20030;-83
2021/06/20 00:57:12;;;;;;;5.03;2.80;;;23.10;99.90;;;;;;4144926;28;20036;-83
2021/06/20 00:59:13;;;;;;;5.43;2.78;;;23.10;99.90;;;;;;4143446;28;20490;-83
2021/06/20 01:01:13;;;;;;;4.68;3.08;;;23.10;99.90;;;;;;4129408;28;21574;-83
2021/06/20 01:03:14;;;;;;;3.92;2.80;;;23.10;99.90;;;;;;4129076;28;20030;-83
2021/06/20 01:05:15;;;;;;;3.20;2.30;;;23.20;99.90;;;;;;4145697;28;20025;-83
2021/06/20 01:07:21;;;;;;;5.30;2.50;;;23.10;99.90;;;;;;4146803;28;20038;-82
2021/06/20 01:09:22;;;;;;;4.72;2.60;;;23.20;99.90;;;;;;4131052;28;20098;-83
2021/06/20 01:11:23;;;;;;;5.00;2.60;;;23.20;99.90;;;;;;4132028;28;20038;-83
2021/06/20 01:13:23;;;;;;;6.28;2.60;;;23.20;99.90;;;;;;4132833;28;20039;-83
2021/06/20 01:15:24;;;;;;;6.07;2.65;;;23.10;99.90;;;;;;4148763;28;20045;-83
2021/06/20 01:17:25;;;;;;;4.82;2.30;;;23.10;99.90;;;;;;4131587;28;20045;-83
2021/06/20 01:19:41;;;;;;;5.13;2.80;;;23.00;99.90;;;;;;4132252;28;20038;-83
2021/06/20 01:21:44;;;;;;;5.03;2.20;;;22.90;99.90;;;;;;4148640;28;20030;-83
2021/06/20 01:23:44;;;;;;;5.72;2.22;;;22.90;99.90;;;;;;4132678;28;20396;-83
2021/06/20 01:25:45;;;;;;;5.35;2.00;;;22.80;99.90;;;;;;4148158;28;20034;-83
2021/06/20 01:27:53;;;;;;;6.15;2.30;;;22.80;99.90;;;;;;4132409;28;20054;-83
2021/06/20 01:29:53;;;;;;;3.70;2.10;;;22.70;99.90;;;;;;4132163;28;20089;-83
2021/06/20 01:31:54;;;;;;;6.13;2.55;;;22.60;99.90;;;;;;4148715;28;20030;-83
2021/06/20 01:33:56;;;;;;;4.45;2.60;;;22.60;99.90;;;;;;4131937;28;20161;-83
2021/06/20 01:35:56;;;;;;;9.23;3.40;;;22.60;99.90;;;;;;4131199;28;20084;-83
2021/06/20 01:37:59;;;;;;;6.22;3.20;;;22.60;99.90;;;;;;4132347;28;20034;-83
2021/06/20 01:39:59;;;;;;;6.60;3.38;;;22.60;99.90;;;;;;4132296;28;20683;-83
2021/06/20 01:42:00;;;;;;;7.03;3.08;;;22.50;99.90;;;;;;4131639;28;20185;-83
2021/06/20 01:44:01;;;;;;;6.93;2.78;;;22.40;99.90;;;;;;4147174;28;20074;-83
2021/06/20 01:46:02;;;;;;;6.43;2.30;;;22.20;99.90;;;;;;4131944;28;20026;-83
2021/06/20 01:48:03;;;;;;;6.90;2.38;;;22.30;99.90;;;;;;4132472;28;20068;-83
2021/06/20 01:50:08;;;;;;;7.80;2.20;;;22.30;99.90;;;;;;4148510;28;20510;-83
2021/06/20 01:52:09;;;;;;;4.07;1.73;;;22.30;99.90;;;;;;4131270;28;20392;-83
2021/06/20 01:54:10;;;;;;;5.47;1.80;;;22.20;99.90;;;;;;4147313;28;20096;-83
2021/06/20 01:56:11;;;;;;;10.15;1.77;;;22.30;99.90;;;;;;4147981;28;20038;-83
2021/06/20 01:58:13;;;;;;;3.80;1.70;;;22.30;99.90;;;;;;4148319;28;20061;-83
2021/06/20 02:00:16;;;;;;;4.18;1.67;;;22.30;99.90;;;;;;4148177;28;20081;-83
2021/06/20 02:02:17;;;;;;;5.75;2.13;;;22.20;99.90;;;;;;4147089;28;20050;-83
2021/06/20 02:04:17;;;;;;;3.17;1.73;;;22.20;99.90;;;;;;4131566;28;20482;-83
2021/06/20 02:06:18;;;;;;;4.00;1.98;;;22.10;99.90;;;;;;4147574;28;20065;-82
2021/06/20 02:08:19;;;;;;;5.68;2.03;;;22.10;99.90;;;;;;4149306;28;20037;-83
2021/06/20 02:10:20;;;;;;;7.78;1.67;;;22.10;99.90;;;;;;4148632;28;20438;-83
2021/06/20 02:12:23;;;;;;;2.92;1.40;;;22.10;99.90;;;;;;4131419;28;20031;-83
2021/06/20 02:14:24;;;;;;;5.75;1.92;;;22.00;99.90;;;;;;4147893;28;20038;-83
2021/06/20 02:16:25;;;;;;;2.38;1.27;;;22.10;99.90;;;;;;4131332;28;21211;-83
2021/06/20 02:18:26;;;;;;;2.95;1.60;;;22.10;99.90;;;;;;4148599;28;20240;-83
2021/06/20 02:20:27;;;;;;;7.20;1.48;;;22.10;99.90;;;;;;4130670;28;20037;-83
2021/06/20 02:22:29;;;;;;;4.38;1.63;;;22.10;99.90;;;;;;4147930;28;20121;-83
2021/06/20 02:24:29;;;;;;;6.90;1.67;;;22.10;99.90;;;;;;4131389;28;20107;-83
2021/06/20 02:26:40;;;;;;;7.05;1.73;;;22.00;99.90;;;;;;4131452;28;20046;-83
2021/06/20 02:28:40;;;;;;;5.15;1.70;;;21.90;99.90;;;;;;4126296;28;20045;-83
2021/06/20 02:30:41;;;;;;;7.60;2.15;;;22.00;99.90;;;;;;4127815;28;20039;-83
2021/06/20 02:32:42;;;;;;;4.10;1.30;;;22.00;99.90;;;;;;4147457;28;20030;-83
2021/06/20 02:34:43;;;;;;;4.47;1.50;;;22.00;99.90;;;;;;4146601;28;21075;-83
2021/06/20 02:36:46;;;;;;;6.05;1.73;;;21.90;99.90;;;;;;4131581;28;20046;-83
2021/06/20 02:38:47;;;;;;;4.20;1.90;;;21.90;99.90;;;;;;4146529;28;20113;-83
2021/06/20 02:40:52;;;;;;;6.35;2.45;;;21.80;99.90;;;;;;4131060;28;20062;-82
2021/06/20 02:42:52;;;;;;;5.70;2.25;;;21.80;99.90;;;;;;4143600;28;20044;-83
2021/06/20 02:44:53;;;;;;;6.03;2.70;;;21.80;99.90;;;;;;4131180;28;20026;-83
2021/06/20 02:46:57;;;;;;;4.45;2.05;;;21.70;99.90;;;;;;4130142;28;20434;-83
2021/06/20 02:48:58;;;;;;;5.78;2.20;;;21.70;99.90;;;;;;4146655;28;20659;-83
2021/06/20 02:50:58;;;;;;;4.15;1.80;;;21.70;99.90;;;;;;4130364;28;20122;-83
2021/06/20 02:52:59;;;;;;;5.82;2.40;;;21.70;99.90;;;;;;4147326;28;20038;-83
2021/06/20 02:55:01;;;;;;;9.05;2.17;;;21.60;99.90;;;;;;4145838;28;20038;-83
2021/06/20 02:57:03;;;;;;;5.55;2.28;;;21.60;99.90;;;;;;4137277;28;20026;-83
2021/06/20 02:59:04;;;;;;;6.38;2.55;;;21.60;99.90;;;;;;4130979;28;20045;-83
2021/06/20 03:01:05;;;;;;;11.35;2.42;;;21.50;99.90;;;;;;4130642;28;20022;-83
2021/06/20 03:03:05;;;;;;;6.80;2.40;;;21.60;99.90;;;;;;4146785;28;20069;-83
2021/06/20 03:05:09;;;;;;;12.70;2.13;;;21.60;99.90;;;;;;4144200;28;20037;-83
2021/06/20 03:07:10;;;;;;;5.53;2.47;;;21.50;99.90;;;;;;4146817;28;20030;-83
2021/06/20 03:09:11;;;;;;;5.68;2.42;;;21.50;99.90;;;;;;4145734;28;20022;-83
2021/06/20 03:11:11;;;;;;;6.82;2.72;;;21.50;99.90;;;;;;4130871;28;20113;-83
2021/06/20 03:13:13;;;;;;;9.80;2.92;;;21.50;99.90;;;;;;4129687;28;20034;-83
2021/06/20 03:15:14;;;;;;;8.68;2.58;;;21.40;99.90;;;;;;4144545;28;20042;-83
2021/06/20 03:17:15;;;;;;;6.35;3.20;;;21.50;99.90;;;;;;4146578;28;20080;-83
2021/06/20 03:19:16;;;;;;;4.43;2.53;;;21.50;99.90;;;;;;4126095;28;20121;-83
2021/06/20 03:21:17;;;;;;;6.53;3.65;;;21.50;99.90;;;;;;4162754;28;21560;-83
2021/06/20 03:23:18;;;;;;;5.32;3.22;;;21.50;99.90;;;;;;4146290;28;20030;-83
2021/06/20 03:25:19;;;;;;;7.00;3.10;;;21.50;99.90;;;;;;4148374;28;20141;-83
2021/06/20 03:27:20;;;;;;;7.88;4.70;;;21.50;99.90;;;;;;4130878;28;20069;-83
2021/06/20 03:29:21;;;;;;;5.32;4.20;;;21.50;99.90;;;;;;4147009;28;20038;-83
2021/06/20 03:31:21;;;;;;;7.03;4.45;;;21.50;99.90;;;;;;4128695;28;20065;-82
2021/06/20 03:33:22;;;;;;;7.85;4.93;;;21.50;99.90;;;;;;4145338;28;20038;-83
2021/06/20 03:35:23;;;;;;;9.60;5.88;;;21.60;99.90;;;;;;4146813;28;20045;-83
2021/06/20 03:37:24;;;;;;;8.85;5.30;;;21.60;99.90;;;;;;4146838;28;20045;-83
2021/06/20 03:39:24;;;;;;;10.32;5.80;;;21.50;99.90;;;;;;4146125;28;20365;-83
2021/06/20 03:41:25;;;;;;;9.38;6.00;;;21.60;99.90;;;;;;4129540;28;20097;-83
2021/06/20 03:43:26;;;;;;;13.23;7.35;;;21.50;99.90;;;;;;4146759;28;20038;-83
2021/06/20 03:45:26;;;;;;;10.73;6.22;;;21.50;99.90;;;;;;4146763;28;20041;-83
2021/06/20 03:47:27;;;;;;;10.25;6.10;;;21.50;99.90;;;;;;4146007;28;20044;-83
2021/06/20 03:49:28;;;;;;;10.20;6.32;;;21.50;99.90;;;;;;4145976;28;20180;-83
2021/06/20 03:51:28;;;;;;;8.70;5.85;;;21.50;99.90;;;;;;4147999;28;20030;-83
2021/06/20 03:53:29;;;;;;;15.38;6.30;;;21.50;99.90;;;;;;4147968;28;20034;-83
2021/06/20 03:55:30;;;;;;;11.70;7.18;;;21.50;99.90;;;;;;4130175;28;20038;-83
2021/06/20 03:57:31;;;;;;;15.65;6.80;;;21.50;99.90;;;;;;4128824;28;20105;-83
2021/06/20 03:59:32;;;;;;;11.05;6.80;;;21.50;99.90;;;;;;4146701;28;20452;-83
2021/06/20 04:01:32;;;;;;;14.57;7.30;;;21.50;99.90;;;;;;4146377;28;20097;-83
2021/06/20 04:03:33;;;;;;;12.07;7.35;;;21.50;99.90;;;;;;4146433;28;20029;-83
2021/06/20 04:05:34;;;;;;;13.05;7.65;;;21.40;99.90;;;;;;4145985;28;20044;-83
2021/06/20 04:07:34;;;;;;;11.88;7.70;;;21.40;99.90;;;;;;4146591;28;20116;-83
2021/06/20 04:09:35;;;;;;;10.95;7.35;;;21.40;99.90;;;;;;4146724;28;20037;-84
2021/06/20 04:11:35;;;;;;;10.55;7.60;;;21.40;99.90;;;;;;4146238;28;20038;-83
2021/06/20 04:13:37;;;;;;;13.27;8.05;;;21.40;99.90;;;;;;4146069;28;20029;-83
2021/06/20 04:15:37;;;;;;;9.73;7.68;;;21.40;99.90;;;;;;4144533;28;20782;-83
2021/06/20 04:17:38;;;;;;;13.63;8.27;;;21.40;99.90;;;;;;4127614;28;20035;-83
2021/06/20 04:19:39;;;;;;;11.90;6.88;;;21.40;99.90;;;;;;4146480;28;20037;-83
2021/06/20 04:21:40;;;;;;;10.30;7.45;;;21.50;99.90;;;;;;4130100;28;20090;-83
2021/06/20 04:23:40;;;;;;;13.73;8.20;;;21.50;99.90;;;;;;4129026;28;20042;-83
2021/06/20 04:25:41;;;;;;;10.75;7.55;;;21.50;99.90;;;;;;4129995;28;20109;-83
2021/06/20 04:27:43;;;;;;;15.43;8.93;;;21.50;99.90;;;;;;4129265;28;20030;-83
2021/06/20 04:29:44;;;;;;;13.63;8.77;;;21.50;99.90;;;;;;4146487;28;20080;-83
2021/06/20 04:31:44;;;;;;;11.73;8.65;;;21.50;99.90;;;;;;4129437;28;20121;-83
2021/06/20 04:33:45;;;;;;;15.55;8.73;;;21.40;99.90;;;;;;4145882;28;20034;-82
2021/06/20 04:35:46;;;;;;;15.70;9.90;;;21.40;99.90;;;;;;4129516;28;20027;-83
2021/06/20 04:37:47;;;;;;;13.25;8.90;;;21.40;99.90;;;;;;4130259;28;20069;-83
2021/06/20 04:39:48;;;;;;;16.05;8.77;;;21.40;99.90;;;;;;4145567;28;20173;-83
2021/06/20 04:41:50;;;;;;;11.88;8.82;;;21.30;99.90;;;;;;4147224;28;20101;-83
2021/06/20 04:45:52;;;;;;;16.10;10.40;;;21.30;99.90;;;;;;4151513;28;20564;-83
2021/06/20 04:47:53;;;;;;;12.07;8.73;;;21.20;99.90;;;;;;4149461;28;20033;-83
2021/06/20 04:49:54;;;;;;;15.48;10.05;;;21.30;99.90;;;;;;4131891;28;20113;-83
2021/06/20 04:51:55;;;;;;;14.68;9.68;;;21.30;99.90;;;;;;4150158;28;20115;-83
2021/06/20 04:53:56;;;;;;;15.88;9.27;;;21.30;99.90;;;;;;4148499;28;20034;-83
2021/06/20 04:55:56;;;;;;;15.35;9.30;;;21.30;99.90;;;;;;4149400;28;20037;-83
2021/06/20 04:57:57;;;;;;;14.85;9.25;;;21.30;99.90;;;;;;4148235;28;20034;-83
2021/06/20 05:00:01;;;;;;;13.30;9.45;;;21.30;99.90;;;;;;4149169;28;20470;-83
2021/06/20 05:02:02;;;;;;;13.68;8.57;;;21.30;99.90;;;;;;4148344;28;20042;-83
2021/06/20 05:04:04;;;;;;;15.68;8.80;;;21.40;99.90;;;;;;4148576;28;20084;-83
2021/06/20 05:06:06;;;;;;;13.23;8.10;;;21.40;99.90;;;;;;4149347;28;20498;-83
2021/06/20 05:08:23;;;;;;;11.30;7.50;;;21.40;99.90;;;;;;4146903;28;20049;-83
2021/06/20 05:10:25;;;;;;;11.05;7.50;;;21.50;99.90;;;;;;4132216;28;20038;-83
2021/06/20 05:12:26;;;;;;;19.33;8.35;;;21.50;99.90;;;;;;4147560;28;20054;-83
2021/06/20 05:14:26;;;;;;;12.20;7.88;;;21.50;99.90;;;;;;4132395;28;20043;-83
2021/06/20 05:16:27;;;;;;;8.60;6.60;;;21.50;99.90;;;;;;4150792;28;20030;-83
2021/06/20 05:18:39;;;;;;;9.85;7.28;;;21.50;99.90;;;;;;4147877;28;20065;-83
2021/06/20 05:20:41;;;;;;;10.65;6.90;;;21.60;99.90;;;;;;4128966;28;20454;-83
2021/06/20 05:22:41;;;;;;;11.02;6.22;;;21.60;99.90;;;;;;4141292;28;20033;-83
2021/06/20 05:24:42;;;;;;;9.45;6.15;;;21.60;99.90;;;;;;4131624;28;20050;-83
2021/06/20 05:26:44;;;;;;;8.05;5.68;;;21.60;99.90;;;;;;4128950;28;20029;-83
2021/06/20 05:28:48;;;;;;;6.10;4.38;;;21.60;99.90;;;;;;4132247;28;20642;-83
2021/06/20 05:30:50;;;;;;;9.82;5.60;;;21.60;99.90;;;;;;4151694;28;20037;-83
2021/06/20 05:32:53;;;;;;;6.07;3.88;;;21.60;99.90;;;;;;4148125;28;20378;-83
2021/06/20 05:34:54;;;;;;;;;;;21.60;99.90;;;;;;4135012;28;20031;-83
2021/06/20 05:36:54;;;;;;;7.78;3.45;;;21.60;99.90;;;;;;4146351;28;20488;-83
2021/06/20 05:38:57;;;;;;;5.78;3.03;;;21.60;99.90;;;;;;4135879;28;20026;-83
2021/06/20 05:40:59;;;;;;;;;;;21.60;99.90;;;;;;4148175;28;20083;-83
2021/06/20 05:43:00;;;;;;;7.03;2.53;;;21.60;99.90;;;;;;4131451;28;19941;-83
2021/06/20 05:45:02;;;;;;;8.00;3.05;;;21.60;99.90;;;;;;4137592;28;20076;-83
2021/06/20 05:47:03;;;;;;;4.47;2.63;;;21.60;99.90;;;;;;4132928;28;20034;-83
2021/06/20 05:49:03;;;;;;;7.90;2.90;;;21.60;99.90;;;;;;4149374;28;20037;-83
2021/06/20 05:51:04;;;;;;;4.55;2.50;;;21.60;99.90;;;;;;4152105;28;20029;-83
2021/06/20 05:53:05;;;;;;;5.35;2.63;;;21.60;99.90;;;;;;4153184;28;20681;-83
2021/06/20 05:55:07;;;;;;;5.75;2.60;;;21.60;99.90;;;;;;4149494;28;20121;-83
2021/06/20 05:57:07;;;;;;;6.20;2.38;;;21.50;99.90;;;;;;4150084;28;20053;-83
2021/06/20 05:59:23;;;;;;;6.25;2.40;;;21.50;99.90;;;;;;4146949;28;20034;-84
2021/06/20 06:01:24;;;;;;;5.95;2.40;;;21.60;99.90;;;;;;4149156;28;20038;-83
2021/06/20 06:03:24;;;;;;;6.07;2.50;;;21.60;99.90;;;;;;4146445;28;20038;-83
2021/06/20 06:05:26;;;;;;;5.13;2.40;;;21.60;99.90;;;;;;4139741;28;20038;-83
2021/06/20 06:07:26;;;;;;;8.00;2.58;;;21.70;99.90;;;;;;4149901;28;20133;-83
2021/06/20 06:09:27;;;;;;;6.95;2.50;;;21.70;99.90;;;;;;4150093;28;20053;-83
2021/06/20 06:11:28;;;;;;;4.00;2.08;;;21.70;99.90;;;;;;4133130;28;20475;-83
2021/06/20 06:13:35;;;;;;;4.85;2.00;;;21.70;99.90;;;;;;4149785;28;20034;-83
2021/06/20 06:15:35;;;;;;;5.22;2.30;;;21.70;99.90;;;;;;4148629;28;20076;-83
2021/06/20 06:17:37;;;;;;;4.95;2.42;;;21.70;99.90;;;;;;4147386;28;20116;-79
2021/06/20 06:19:37;;;;;;;7.00;2.35;;;21.70;99.90;;;;;;4128254;28;20062;-79
2021/06/20 06:21:38;;;;;;;4.47;2.65;;;21.80;99.90;;;;;;4151604;28;20076;-79
2021/06/20 06:23:40;;;;;;;4.13;2.63;;;21.80;99.90;;;;;;4129615;28;20057;-81
2021/06/20 06:25:41;;;;;;;4.88;2.53;;;21.80;99.90;;;;;;4142858;28;20030;-79
2021/06/20 06:27:42;;;;;;;3.58;2.28;;;21.80;99.90;;;;;;4142602;28;20030;-79
2021/06/20 06:29:46;;;;;;;5.00;2.50;;;21.90;99.90;;;;;;4145006;28;20057;-79
2021/06/20 06:31:46;;;;;;;5.65;2.97;;;22.00;99.90;;;;;;4143916;28;20084;-79
2021/06/20 06:33:47;;;;;;;6.07;2.92;;;21.90;99.90;;;;;;4146142;28;20077;-79
2021/06/20 06:35:56;;;;;;;4.55;3.13;;;22.00;99.90;;;;;;4131151;28;20073;-79
2021/06/20 06:37:56;;;;;;;5.45;3.20;;;22.00;99.90;;;;;;4142120;28;20096;-79
2021/06/20 06:39:57;;;;;;;5.90;2.80;;;22.00;99.90;;;;;;4143637;28;20029;-79
2021/06/20 06:41:58;;;;;;;3.10;2.78;;;22.00;99.90;;;;;;4147073;28;20398;-79
2021/06/20 06:43:59;;;;;;;5.25;3.08;;;22.10;99.90;;;;;;4128605;28;20510;-79
2021/06/20 06:46:00;;;;;;;4.25;2.67;;;22.10;99.90;;;;;;4122820;28;20041;-79
2021/06/20 06:48:01;;;;;;;4.82;3.40;;;22.20;99.90;;;;;;4144137;28;20038;-79
2021/06/20 06:50:03;;;;;;;4.00;2.42;;;22.20;99.90;;;;;;4147961;28;20042;-79
2021/06/20 06:52:04;;;;;;;;;;;22.20;99.90;;;;;;4147318;28;20125;-79
2021/06/20 06:54:05;;;;;;;6.88;2.30;;;22.20;99.90;;;;;;4146257;28;19913;-79
2021/06/20 06:56:05;;;;;;;4.82;2.60;;;22.20;99.90;;;;;;4143253;28;20069;-79
2021/06/20 06:58:06;;;;;;;4.75;2.60;;;22.30;99.90;;;;;;4127982;28;20030;-79
2021/06/20 07:00:09;;;;;;;4.65;2.80;;;22.30;99.90;;;;;;4127707;28;20042;-79
2021/06/20 07:02:10;;;;;;;5.20;2.50;;;22.30;99.90;;;;;;4144721;28;20048;-79
2021/06/20 07:04:10;;;;;;;5.32;2.70;;;22.30;99.90;;;;;;4145872;28;20038;-79
2021/06/20 07:06:11;;;;;;;2.65;1.95;;;22.40;99.90;;;;;;4144869;28;20084;-79
2021/06/20 07:08:12;;;;;;;4.90;2.53;;;22.50;99.90;;;;;;4144302;28;20398;-79
2021/06/20 07:10:13;;;;;;;3.08;2.20;;;22.50;99.90;;;;;;4143781;28;20030;-79
2021/06/20 07:12:13;;;;;;;5.43;2.30;;;22.60;99.90;;;;;;4127803;28;20038;-79
2021/06/20 07:14:14;;;;;;;7.07;2.40;;;22.60;99.90;;;;;;4145421;28;20081;-79
2021/06/20 07:16:15;;;;;;;9.50;3.10;;;22.60;99.90;;;;;;4144447;28;20167;-79
2021/06/20 07:18:24;;;;;;;5.82;2.15;;;22.60;99.90;;;;;;4147078;28;20497;-79
2021/06/20 07:20:25;;;;;;;2.78;1.98;;;22.60;99.90;;;;;;4143172;28;20589;-80
2021/06/20 07:22:25;;;;;;;2.55;1.90;;;22.70;99.90;;;;;;4143543;28;20037;-80
2021/06/20 07:24:26;;;;;;;2.95;2.05;;;22.70;99.90;;;;;;4145877;28;20030;-79
2021/06/20 07:26:27;;;;;;;5.10;2.20;;;22.70;99.90;;;;;;4148088;28;20042;-79
2021/06/20 07:28:28;;;;;;;2.83;1.55;;;22.70;99.90;;;;;;4146496;28;20042;-79
2021/06/20 07:30:28;;;;;;;4.93;1.90;;;22.80;99.90;;;;;;4141654;28;20026;-79
2021/06/20 07:32:29;;;;;;;3.17;2.03;;;22.80;99.90;;;;;;4145020;28;20100;-80
2021/06/20 07:34:29;;;;;;;2.88;2.00;;;22.80;99.90;;;;;;4144280;28;20041;-79
2021/06/20 07:36:30;;;;;;;2.65;1.77;;;22.80;99.90;;;;;;4144621;28;20033;-79
2021/06/20 07:38:30;;;;;;;3.47;1.38;;;22.80;99.90;;;;;;4144254;28;20100;-80
2021/06/20 07:40:32;;;;;;;4.20;2.08;;;22.80;99.90;;;;;;4124522;28;20089;-80
2021/06/20 07:42:34;;;;;;;3.50;1.75;;;22.80;99.90;;;;;;4145389;28;20030;-81
2021/06/20 07:44:34;;;;;;;4.90;1.67;;;22.90;99.90;;;;;;4147063;28;20041;-80
2021/06/20 07:46:35;;;;;;;2.35;1.60;;;22.90;99.90;;;;;;4139600;28;20030;-79
2021/06/20 07:48:36;;;;;;;6.88;1.50;;;22.90;99.90;;;;;;4126613;28;20054;-79
2021/06/20 07:50:39;;;;;;;1.92;1.70;;;22.90;99.90;;;;;;4144822;28;20061;-79
2021/06/20 07:52:41;;;;;;;2.25;1.70;;;22.90;99.90;;;;;;4141604;28;20046;-79
2021/06/20 07:54:51;;;;;;;3.83;1.48;;;22.90;99.90;;;;;;4143271;28;20513;-79
2021/06/20 07:56:53;;;;;;;3.05;1.67;;;22.90;99.90;;;;;;4144246;28;20041;-79
2021/06/20 07:58:57;;;;;;;;;;;22.90;99.90;;;;;;4132828;28;20565;-79
2021/06/20 08:00:59;;;;;;;;;;;22.90;99.90;;;;;;4123929;28;19922;-79
2021/06/20 08:03:00;;;;;;;18.42;2.15;;;22.90;99.90;;;;;;4145834;28;19917;-79
2021/06/20 08:05:03;;;;;;;4.63;1.58;;;22.90;99.90;;;;;;4138659;28;20030;-79
2021/06/20 08:07:07;;;;;;;1.65;1.48;;;22.90;99.90;;;;;;4141714;28;20386;-80
2021/06/20 08:09:07;;;;;;;2.88;1.40;;;22.90;99.90;;;;;;4141195;28;20486;-81
2021/06/20 08:11:10;;;;;;;2.55;1.58;;;22.90;99.90;;;;;;4124505;28;20035;-79
2021/06/20 08:13:11;;;;;;;1.27;1.17;;;22.90;99.90;;;;;;4143777;28;20058;-81
2021/06/20 08:15:12;;;;;;;1.85;1.50;;;22.90;99.90;;;;;;4147200;28;20041;-81
2021/06/20 08:17:13;;;;;;;1.65;1.30;;;22.90;99.90;;;;;;4144191;28;20132;-78
2021/06/20 08:19:16;;;;;;;2.28;1.40;;;23.00;99.90;;;;;;4152677;28;20025;-78
2021/06/20 08:21:17;;;;;;;3.60;1.13;;;23.00;99.90;;;;;;4130981;28;20061;-78
2021/06/20 08:23:18;;;;;;;3.13;1.73;;;23.10;99.90;;;;;;4147356;28;20115;-78
2021/06/20 08:25:19;;;;;;;3.65;1.30;;;23.10;99.90;;;;;;4125141;28;20096;-78
2021/06/20 08:27:20;;;;;;;3.40;1.35;;;23.20;99.90;;;;;;4143010;28;20034;-78
2021/06/20 08:29:21;;;;;;;5.43;1.25;;;23.20;99.90;;;;;;4139084;28;20022;-80
2021/06/20 08:31:21;;;;;;;3.53;1.10;;;23.20;99.90;;;;;;4145420;28;20105;-80
2021/06/20 08:33:22;;;;;;;1.70;1.02;;;23.30;99.90;;;;;;4127001;28;20081;-80
2021/06/20 08:35:29;;;;;;;4.28;1.63;;;23.30;99.90;;;;;;4146277;28;20544;-80
2021/06/20 08:37:30;;;;;;;1.58;1.10;;;23.30;99.90;;;;;;4125286;28;20499;-81
2021/06/20 08:39:31;;;;;;;2.15;1.15;;;23.40;99.90;;;;;;4138662;28;20538;-82
2021/06/20 08:41:33;;;;;;;3.78;1.02;;;23.50;99.90;;;;;;4135540;28;20042;-80
2021/06/20 08:43:33;;;;;;;2.88;1.10;;;23.50;99.90;;;;;;4138621;28;20038;-80
2021/06/20 08:45:34;;;;;;;1.73;1.10;;;23.60;99.90;;;;;;4128313;28;20034;-80
2021/06/20 08:47:35;;;;;;;1.92;0.95;;;23.60;99.90;;;;;;4140087;28;20030;-80
2021/06/20 08:49:36;;;;;;;1.33;0.90;;;23.60;99.90;;;;;;4125671;28;20023;-80
2021/06/20 08:51:37;;;;;;;1.20;1.10;;;23.70;99.90;;;;;;4143969;28;20081;-80
2021/06/20 08:53:38;;;;;;;1.20;0.82;;;23.80;99.90;;;;;;4142672;28;20105;-80
2021/06/20 08:55:39;;;;;;;1.65;0.90;;;23.90;99.90;;;;;;4144557;28;20038;-80
2021/06/20 08:57:42;;;;;;;5.15;1.55;;;24.00;99.90;;;;;;4142921;28;20379;-80
2021/06/20 08:59:44;;;;;;;3.05;0.90;;;24.10;99.90;;;;;;4146958;28;20128;-80
2021/06/20 09:01:44;;;;;;;2.65;1.00;;;24.20;99.90;;;;;;4145301;28;20387;-80
2021/06/20 09:03:45;;;;;;;1.83;1.20;;;24.20;99.90;;;;;;4141043;28;20026;-80
2021/06/20 09:06:00;;;;;;;1.40;1.17;;;24.30;99.90;;;;;;4147822;28;20061;-80
2021/06/20 09:08:01;;;;;;;1.00;0.90;;;24.40;99.90;;;;;;4144245;28;20489;-80
2021/06/20 09:10:20;;;;;;;1.42;1.00;;;24.40;99.90;;;;;;4141980;28;20030;-80
2021/06/20 09:12:20;;;;;;;1.75;0.95;;;24.50;99.90;;;;;;4142153;28;20037;-80
2021/06/20 09:14:22;;;;;;;1.60;0.73;;;24.50;99.90;;;;;;4143136;28;20037;-80
2021/06/20 09:16:23;;;;;;;3.87;0.97;;;24.50;99.90;;;;;;4140679;28;20386;-80
2021/06/20 09:18:23;;;;;;;2.38;1.15;;;24.60;99.90;;;;;;4140175;28;20034;-80
2021/06/20 09:20:53;;;;;;;1.05;0.95;;;24.60;99.90;;;;;;4144289;28;20030;-81
2021/06/20 09:22:55;;;;;;;1.08;1.00;;;24.60;99.90;;;;;;4130540;28;20490;-80
2021/06/20 09:25:09;;;;;;;3.97;0.95;;;24.70;99.90;;;;;;4125570;28;20038;-80
2021/06/20 09:27:13;;;;;;;4.38;1.17;;;24.70;99.90;;;;;;4142983;28;20117;-80
2021/06/20 09:29:28;;;;;;;1.77;1.00;;;24.70;99.90;;;;;;4129379;28;20447;-80
2021/06/20 09:31:45;;;;;;;1.52;1.02;;;24.60;99.90;;;;;;4143624;28;20407;-80
2021/06/20 09:33:48;;;;;;;1.95;1.00;;;24.60;99.90;;;;;;4148615;28;20048;-80
2021/06/20 09:35:53;;;;;;;;;;;24.60;99.90;;;;;;4148944;28;20053;-80
2021/06/20 09:37:55;;;;;;;1.63;0.90;;;24.70;99.90;;;;;;4145322;28;19916;-79
2021/06/20 09:39:56;;;;;;;1.63;0.70;;;24.70;99.90;;;;;;4149164;28;20037;-80
2021/06/20 09:42:02;;;;;;;1.70;0.90;;;24.70;99.90;;;;;;4146809;28;20096;-80
2021/06/20 09:44:05;;;;;;;2.22;0.88;;;24.80;99.90;;;;;;4144829;28;20632;-80
2021/06/20 09:46:10;;;;;;;2.47;1.00;;;24.90;99.90;;;;;;4146529;28;20029;-80
2021/06/20 09:48:30;;;;;;;1.27;0.75;;;25.00;99.90;;;;;;4145122;28;20096;-79
2021/06/20 09:50:39;;;;;;;0.85;0.70;;;25.00;99.90;;;;;;4142817;28;20033;-80
2021/06/20 09:52:39;;;;;;;1.48;0.80;;;25.00;99.90;;;;;;4148513;28;20026;-80
2021/06/20 09:54:55;;;;;;;2.80;0.93;;;25.00;99.90;;;;;;4143364;28;20459;-80
2021/06/20 09:56:56;;;;;;;1.42;1.00;;;25.10;99.90;;;;;;4144995;28;20437;-80
2021/06/20 09:59:04;;;;;;;1.08;0.98;;;25.10;99.90;;;;;;4139704;28;20110;-80
2021/06/20 10:01:12;;;;;;;1.35;0.77;;;25.20;99.90;;;;;;4137789;28;20039;-79
2021/06/20 10:03:24;;;;;;;1.25;1.00;;;25.30;99.90;;;;;;4127499;28;20049;-79
2021/06/20 10:05:24;;;;;;;4.70;0.85;;;25.30;99.40;;;;;;4146900;28;20104;-79
2021/06/20 10:07:26;;;;;;;1.27;0.90;;;25.50;99.00;;;;;;4146437;28;20021;-78
2021/06/20 10:09:27;;;;;;;1.75;1.10;;;25.40;98.30;;;;;;4141188;28;20026;-79
2021/06/20 10:11:28;;;;;;;0.75;0.70;;;25.40;99.80;;;;;;4144188;28;20032;-79
2021/06/20 10:13:28;;;;;;;0.80;0.80;;;25.50;99.70;;;;;;4145451;28;20109;-79
2021/06/20 10:15:29;;;;;;;3.00;0.70;;;25.50;99.80;;;;;;4142756;28;20045;-79
2021/06/20 10:17:33;;;;;;;5.15;1.05;;;25.60;99.90;;;;;;4146053;28;20053;-79
2021/06/20 10:19:40;;;;;;;3.20;1.00;;;25.50;98.20;;;;;;4144641;28;20026;-81
2021/06/20 10:21:46;;;;;;;3.33;1.00;;;25.40;97.40;;;;;;4141551;28;20121;-79
2021/06/20 10:23:47;;;;;;;0.90;0.80;;;25.30;96.80;;;;;;4132108;28;20022;-79
2021/06/20 10:25:47;;;;;;;1.20;0.60;;;25.30;98.30;;;;;;4145883;28;20030;-79
2021/06/20 10:28:08;;;;;;;0.90;0.70;;;25.30;99.30;;;;;;4144917;28;20065;-79
2021/06/20 10:30:34;;;;;;;2.65;0.80;;;25.40;99.90;;;;;;4146877;28;20030;-78
2021/06/20 10:32:41;;;;;;;1.77;0.82;;;25.50;97.30;;;;;;4140063;28;20088;-78
2021/06/20 10:34:54;;;;;;;1.80;0.98;;;25.60;98.10;;;;;;4139560;28;20046;-79
2021/06/20 10:37:00;;;;;;;1.50;0.70;;;25.60;96.90;;;;;;4144494;28;20038;-79
2021/06/20 10:39:11;;;;;;;2.72;0.80;;;25.70;98.00;;;;;;4149052;28;20091;-78